sensor_id;sensor_type;location;lat;lon;timestamp;pressure;altitude;pressure_sealevel;temperature;humidity
52651;BME280;38537;47.226;39.702;2023-06-14T00:00:48;99745.66;;;18.46;87.24
52651;BME280;38537;47.226;39.702;2023-06-14T00:03:16;99754.66;;;18.52;86.70
52651;BME280;38537;47.226;39.702;2023-06-14T00:05:54;99690.19;;;18.15;86.82
52651;BME280;38537;47.226;39.702;2023-06-14T00:08:24;99695.03;;;18.15;86.72
52651;BME280;38537;47.226;39.702;2023-06-14T00:11:02;99714.91;;;18.22;87.43
52651;BME280;38537;47.226;39.702;2023-06-14T00:13:38;99685.00;;;17.98;87.47
52651;BME280;38537;47.226;39.702;2023-06-14T00:16:14;99677.22;;;17.92;87.56
52651;BME280;38537;47.226;39.702;2023-06-14T00:18:47;99732.25;;;18.21;87.45
52651;BME280;38537;47.226;39.702;2023-06-14T00:21:18;99718.00;;;18.13;87.79
52651;BME280;38537;47.226;39.702;2023-06-14T00:24:02;99670.25;;;17.86;88.01
52651;BME280;38537;47.226;39.702;2023-06-14T00:26:31;99662.81;;;17.77;88.09
52651;BME280;38537;47.226;39.702;2023-06-14T00:28:59;99661.59;;;17.75;88.03
52651;BME280;38537;47.226;39.702;2023-06-14T00:31:36;99773.66;;;18.32;88.74
52651;BME280;38537;47.226;39.702;2023-06-14T00:34:04;99636.94;;;17.56;88.34
52651;BME280;38537;47.226;39.702;2023-06-14T00:36:46;99656.88;;;17.63;88.54
52651;BME280;38537;47.226;39.702;2023-06-14T00:39:19;99659.44;;;17.68;88.59
52651;BME280;38537;47.226;39.702;2023-06-14T00:41:57;99755.22;;;18.19;88.25
52651;BME280;38537;47.226;39.702;2023-06-14T00:44:28;99767.06;;;18.25;88.70
52651;BME280;38537;47.226;39.702;2023-06-14T00:47:09;99708.66;;;17.90;88.92
52651;BME280;38537;47.226;39.702;2023-06-14T00:49:38;99666.31;;;17.52;88.94
52651;BME280;38537;47.226;39.702;2023-06-14T00:52:08;99678.19;;;17.61;89.34
52651;BME280;38537;47.226;39.702;2023-06-14T00:54:51;99722.91;;;17.97;89.21
52651;BME280;38537;47.226;39.702;2023-06-14T00:57:19;99787.16;;;18.42;89.27
52651;BME280;38537;47.226;39.702;2023-06-14T01:00:01;99697.84;;;17.73;89.45
52651;BME280;38537;47.226;39.702;2023-06-14T01:02:33;99704.22;;;17.70;89.44
52651;BME280;38537;47.226;39.702;2023-06-14T01:05:11;99634.31;;;17.25;89.73
52651;BME280;38537;47.226;39.702;2023-06-14T01:07:50;99772.97;;;18.16;89.85
52651;BME280;38537;47.226;39.702;2023-06-14T01:10:48;99796.88;;;18.22;90.08
52651;BME280;38537;47.226;39.702;2023-06-14T01:13:36;99656.22;;;17.31;89.94
52651;BME280;38537;47.226;39.702;2023-06-14T01:16:08;99731.47;;;17.81;89.74
52651;BME280;38537;47.226;39.702;2023-06-14T01:18:45;99780.47;;;18.08;89.77
52651;BME280;38537;47.226;39.702;2023-06-14T01:21:25;99723.31;;;17.76;89.52
52651;BME280;38537;47.226;39.702;2023-06-14T01:24:14;99725.38;;;17.79;89.64
52651;BME280;38537;47.226;39.702;2023-06-14T01:26:43;99675.91;;;17.47;89.35
52651;BME280;38537;47.226;39.702;2023-06-14T01:29:27;99715.28;;;17.78;89.34
52651;BME280;38537;47.226;39.702;2023-06-14T01:32:06;99651.53;;;17.39;88.75
52651;BME280;38537;47.226;39.702;2023-06-14T01:34:49;99657.03;;;17.32;88.64
52651;BME280;38537;47.226;39.702;2023-06-14T01:37:23;99775.47;;;18.02;88.64
52651;BME280;38537;47.226;39.702;2023-06-14T01:40:14;99654.59;;;17.30;89.31
52651;BME280;38537;47.226;39.702;2023-06-14T01:42:50;99715.19;;;17.56;88.94
52651;BME280;38537;47.226;39.702;2023-06-14T01:45:28;99662.06;;;17.23;88.98
52651;BME280;38537;47.226;39.702;2023-06-14T01:47:57;99709.84;;;17.51;88.81
52651;BME280;38537;47.226;39.702;2023-06-14T01:50:30;99681.38;;;17.21;88.84
52651;BME280;38537;47.226;39.702;2023-06-14T01:53:07;99688.44;;;17.30;89.08
52651;BME280;38537;47.226;39.702;2023-06-14T01:55:38;99657.75;;;17.09;88.65
52651;BME280;38537;47.226;39.702;2023-06-14T01:58:11;99776.75;;;17.85;88.79
52651;BME280;38537;47.226;39.702;2023-06-14T02:00:39;99663.91;;;17.15;88.45
52651;BME280;38537;47.226;39.702;2023-06-14T02:03:10;99686.72;;;17.26;88.39
52651;BME280;38537;47.226;39.702;2023-06-14T02:05:45;99732.66;;;17.61;88.01
52651;BME280;38537;47.226;39.702;2023-06-14T02:08:14;99748.16;;;17.67;87.62
52651;BME280;38537;47.226;39.702;2023-06-14T02:10:51;99659.16;;;17.19;87.73
52651;BME280;38537;47.226;39.702;2023-06-14T02:13:26;99726.78;;;17.51;87.38
52651;BME280;38537;47.226;39.702;2023-06-14T02:16:03;99685.09;;;17.25;87.41
52651;BME280;38537;47.226;39.702;2023-06-14T02:18:39;99669.47;;;17.11;87.18
52651;BME280;38537;47.226;39.702;2023-06-14T02:21:16;99694.28;;;17.22;87.63
52651;BME280;38537;47.226;39.702;2023-06-14T02:23:46;99690.66;;;17.21;87.24
52651;BME280;38537;47.226;39.702;2023-06-14T02:26:20;99765.09;;;17.67;87.43
52651;BME280;38537;47.226;39.702;2023-06-14T02:28:53;99727.81;;;17.42;87.03
52651;BME280;38537;47.226;39.702;2023-06-14T02:31:28;99762.00;;;17.57;87.31
52651;BME280;38537;47.226;39.702;2023-06-14T02:33:56;99782.47;;;17.69;87.35
52651;BME280;38537;47.226;39.702;2023-06-14T02:36:28;99776.09;;;17.72;87.35
52651;BME280;38537;47.226;39.702;2023-06-14T02:39:00;99734.00;;;17.48;87.03
52651;BME280;38537;47.226;39.702;2023-06-14T02:41:30;99789.31;;;17.68;86.64
52651;BME280;38537;47.226;39.702;2023-06-14T02:43:58;99841.72;;;18.04;86.61
52651;BME280;38537;47.226;39.702;2023-06-14T02:46:29;99741.94;;;17.42;86.48
52651;BME280;38537;47.226;39.702;2023-06-14T02:49:00;99779.00;;;17.60;86.33
52651;BME280;38537;47.226;39.702;2023-06-14T02:51:52;99842.69;;;17.93;86.67
52651;BME280;38537;47.226;39.702;2023-06-14T02:54:31;99764.50;;;17.42;86.80
52651;BME280;38537;47.226;39.702;2023-06-14T02:57:08;99699.09;;;17.02;87.18
52651;BME280;38537;47.226;39.702;2023-06-14T02:59:42;99673.91;;;16.93;86.97
52651;BME280;38537;47.226;39.702;2023-06-14T03:02:17;99675.44;;;16.91;86.94
52651;BME280;38537;47.226;39.702;2023-06-14T03:05:14;99777.00;;;17.61;86.97
52651;BME280;38537;47.226;39.702;2023-06-14T03:07:49;99668.72;;;16.95;86.65
52651;BME280;38537;47.226;39.702;2023-06-14T03:10:46;99696.72;;;17.04;86.73
52651;BME280;38537;47.226;39.702;2023-06-14T03:13:31;99770.25;;;17.46;86.70
52651;BME280;38537;47.226;39.702;2023-06-14T03:16:06;99804.69;;;17.55;86.70
52651;BME280;38537;47.226;39.702;2023-06-14T03:18:39;99688.09;;;16.97;86.50
52651;BME280;38537;47.226;39.702;2023-06-14T03:21:24;99808.84;;;17.77;86.78
52651;BME280;38537;47.226;39.702;2023-06-14T03:24:04;99753.41;;;17.34;86.63
52651;BME280;38537;47.226;39.702;2023-06-14T03:26:51;99717.81;;;17.10;86.66
52651;BME280;38537;47.226;39.702;2023-06-14T03:29:27;99682.97;;;17.02;86.52
52651;BME280;38537;47.226;39.702;2023-06-14T03:32:15;99727.88;;;17.27;86.51
52651;BME280;38537;47.226;39.702;2023-06-14T03:34:52;99766.81;;;17.56;85.89
52651;BME280;38537;47.226;39.702;2023-06-14T03:37:30;99695.91;;;17.03;85.63
52651;BME280;38537;47.226;39.702;2023-06-14T03:40:01;99750.97;;;17.32;85.80
52651;BME280;38537;47.226;39.702;2023-06-14T03:42:48;99787.94;;;17.62;85.76
52651;BME280;38537;47.226;39.702;2023-06-14T03:45:25;99739.03;;;17.39;85.20
52651;BME280;38537;47.226;39.702;2023-06-14T03:48:02;99768.09;;;17.59;85.22
52651;BME280;38537;47.226;39.702;2023-06-14T03:50:53;99817.19;;;17.89;84.71
52651;BME280;38537;47.226;39.702;2023-06-14T03:53:33;99706.59;;;17.13;84.90
52651;BME280;38537;47.226;39.702;2023-06-14T03:56:29;99719.41;;;17.27;84.73
52651;BME280;38537;47.226;39.702;2023-06-14T03:58:57;99709.88;;;17.16;84.51
52651;BME280;38537;47.226;39.702;2023-06-14T04:01:45;99703.31;;;17.11;84.56
52651;BME280;38537;47.226;39.702;2023-06-14T04:04:23;99746.47;;;17.47;84.49
52651;BME280;38537;47.226;39.702;2023-06-14T04:07:00;99695.84;;;17.19;84.45
52651;BME280;38537;47.226;39.702;2023-06-14T04:09:31;99747.00;;;17.53;84.32
52651;BME280;38537;47.226;39.702;2023-06-14T04:12:09;99741.09;;;17.42;84.55
52651;BME280;38537;47.226;39.702;2023-06-14T04:14:46;99741.03;;;17.38;84.75
52651;BME280;38537;47.226;39.702;2023-06-14T04:17:39;99713.06;;;17.14;84.94
52651;BME280;38537;47.226;39.702;2023-06-14T04:20:33;99760.13;;;17.45;85.08
52651;BME280;38537;47.226;39.702;2023-06-14T04:23:20;99713.38;;;17.09;85.66
52651;BME280;38537;47.226;39.702;2023-06-14T04:25:58;99700.72;;;17.03;85.47
52651;BME280;38537;47.226;39.702;2023-06-14T04:28:33;99782.56;;;17.57;85.68
52651;BME280;38537;47.226;39.702;2023-06-14T04:31:15;99753.50;;;17.37;85.72
52651;BME280;38537;47.226;39.702;2023-06-14T04:33:51;99730.53;;;17.20;86.13
52651;BME280;38537;47.226;39.702;2023-06-14T04:36:26;99712.00;;;17.03;86.76
52651;BME280;38537;47.226;39.702;2023-06-14T04:39:00;99693.13;;;16.88;86.73
52651;BME280;38537;47.226;39.702;2023-06-14T04:41:43;99699.72;;;16.95;87.59
52651;BME280;38537;47.226;39.702;2023-06-14T04:44:25;99764.69;;;17.34;88.07
52651;BME280;38537;47.226;39.702;2023-06-14T04:47:01;99698.09;;;16.94;88.23
52651;BME280;38537;47.226;39.702;2023-06-14T04:49:29;99748.00;;;17.25;88.09
52651;BME280;38537;47.226;39.702;2023-06-14T04:52:01;99762.63;;;17.31;88.55
52651;BME280;38537;47.226;39.702;2023-06-14T04:54:43;99706.38;;;17.03;88.64
52651;BME280;38537;47.226;39.702;2023-06-14T04:57:24;99673.75;;;16.86;88.95
52651;BME280;38537;47.226;39.702;2023-06-14T05:00:12;99721.84;;;17.09;89.18
52651;BME280;38537;47.226;39.702;2023-06-14T05:02:49;99740.44;;;17.13;89.21
52651;BME280;38537;47.226;39.702;2023-06-14T05:05:54;99819.59;;;17.52;90.24
52651;BME280;38537;47.226;39.702;2023-06-14T05:08:36;99766.28;;;17.16;89.56
52651;BME280;38537;47.226;39.702;2023-06-14T05:11:22;99765.38;;;17.11;89.87
52651;BME280;38537;47.226;39.702;2023-06-14T05:14:26;99719.59;;;16.83;90.07
52651;BME280;38537;47.226;39.702;2023-06-14T05:20:30;99681.72;;;16.65;90.69
52651;BME280;38537;47.226;39.702;2023-06-14T05:23:03;99761.03;;;17.14;90.27
52651;BME280;38537;47.226;39.702;2023-06-14T05:25:48;99669.47;;;16.76;90.32
52651;BME280;38537;47.226;39.702;2023-06-14T05:28:57;99720.25;;;17.11;89.63
52651;BME280;38537;47.226;39.702;2023-06-14T05:31:27;99819.28;;;17.92;89.42
52651;BME280;38537;47.226;39.702;2023-06-14T05:34:02;99721.03;;;17.28;88.90
52651;BME280;38537;47.226;39.702;2023-06-14T05:36:49;99784.47;;;17.69;88.76
52651;BME280;38537;47.226;39.702;2023-06-14T05:40:10;99851.75;;;18.21;89.08
52651;BME280;38537;47.226;39.702;2023-06-14T05:43:05;99844.19;;;18.25;87.96
52651;BME280;38537;47.226;39.702;2023-06-14T05:45:41;99703.88;;;17.36;87.27
52651;BME280;38537;47.226;39.702;2023-06-14T05:48:25;99768.19;;;17.81;87.38
52651;BME280;38537;47.226;39.702;2023-06-14T05:51:25;99781.75;;;17.92;86.97
52651;BME280;38537;47.226;39.702;2023-06-14T05:54:50;99791.31;;;18.06;86.87
52651;BME280;38537;47.226;39.702;2023-06-14T05:57:58;99686.22;;;17.39;86.55
52651;BME280;38537;47.226;39.702;2023-06-14T06:00:49;99773.09;;;18.04;86.69
52651;BME280;38537;47.226;39.702;2023-06-14T06:03:59;99718.81;;;17.72;86.33
52651;BME280;38537;47.226;39.702;2023-06-14T06:07:12;99716.84;;;17.76;86.46
52651;BME280;38537;47.226;39.702;2023-06-14T06:13:19;99778.13;;;18.33;85.23
52651;BME280;38537;47.226;39.702;2023-06-14T06:16:10;99755.53;;;18.33;84.64
52651;BME280;38537;47.226;39.702;2023-06-14T06:19:46;99793.22;;;18.60;83.83
52651;BME280;38537;47.226;39.702;2023-06-14T06:25:58;99838.41;;;19.02;83.42
52651;BME280;38537;47.226;39.702;2023-06-14T06:29:25;99841.03;;;19.14;83.03
52651;BME280;38537;47.226;39.702;2023-06-14T06:32:10;99803.00;;;18.89;82.75
52651;BME280;38537;47.226;39.702;2023-06-14T06:35:06;99760.38;;;18.56;82.10
52651;BME280;38537;47.226;39.702;2023-06-14T06:38:13;99862.94;;;19.44;81.73
52651;BME280;38537;47.226;39.702;2023-06-14T06:41:22;99738.50;;;18.53;81.69
52651;BME280;38537;47.226;39.702;2023-06-14T06:44:13;99808.91;;;19.03;81.41
52651;BME280;38537;47.226;39.702;2023-06-14T06:47:02;99790.31;;;19.02;81.01
52651;BME280;38537;47.226;39.702;2023-06-14T06:49:48;99849.25;;;19.49;80.55
52651;BME280;38537;47.226;39.702;2023-06-14T06:56:26;99835.97;;;19.50;80.09
52651;BME280;38537;47.226;39.702;2023-06-14T06:59:26;99845.88;;;19.63;78.93
52651;BME280;38537;47.226;39.702;2023-06-14T07:02:19;99825.00;;;19.48;78.93
52651;BME280;38537;47.226;39.702;2023-06-14T07:04:58;99811.44;;;19.35;79.21
52651;BME280;38537;47.226;39.702;2023-06-14T07:07:34;99817.09;;;19.35;78.93
52651;BME280;38537;47.226;39.702;2023-06-14T07:10:13;99756.22;;;18.95;78.51
52651;BME280;38537;47.226;39.702;2023-06-14T07:12:53;99734.28;;;18.89;78.97
52651;BME280;38537;47.226;39.702;2023-06-14T07:15:42;99745.88;;;19.06;78.76
52651;BME280;38537;47.226;39.702;2023-06-14T07:18:37;99840.59;;;19.62;78.50
52651;BME280;38537;47.226;39.702;2023-06-14T07:21:17;99753.34;;;19.18;78.37
52651;BME280;38537;47.226;39.702;2023-06-14T07:24:01;99814.13;;;19.50;78.46
52651;BME280;38537;47.226;39.702;2023-06-14T07:26:50;99840.72;;;19.69;78.40
52651;BME280;38537;47.226;39.702;2023-06-14T07:29:35;99752.53;;;19.17;77.99
52651;BME280;38537;47.226;39.702;2023-06-14T07:32:21;99792.16;;;19.44;77.78
52651;BME280;38537;47.226;39.702;2023-06-14T07:35:08;99883.06;;;20.18;77.85
52651;BME280;38537;47.226;39.702;2023-06-14T07:38:06;99752.69;;;19.55;77.13
52651;BME280;38537;47.226;39.702;2023-06-14T07:40:38;99823.38;;;20.04;76.71
52651;BME280;38537;47.226;39.702;2023-06-14T07:43:21;99836.44;;;20.12;75.96
52651;BME280;38537;47.226;39.702;2023-06-14T07:45:56;99791.22;;;19.93;76.16
52651;BME280;38537;47.226;39.702;2023-06-14T07:48:42;99871.03;;;20.55;76.33
52651;BME280;38537;47.226;39.702;2023-06-14T07:51:20;99773.88;;;19.98;75.74
52651;BME280;38537;47.226;39.702;2023-06-14T07:54:04;99871.78;;;20.51;75.17
52651;BME280;38537;47.226;39.702;2023-06-14T07:56:48;99756.94;;;19.71;75.31
52651;BME280;38537;47.226;39.702;2023-06-14T07:59:26;99765.41;;;19.68;75.88
52651;BME280;38537;47.226;39.702;2023-06-14T08:02:04;99783.16;;;19.95;75.88
52651;BME280;38537;47.226;39.702;2023-06-14T08:04:32;99810.13;;;20.15;75.46
52651;BME280;38537;47.226;39.702;2023-06-14T08:07:00;99856.75;;;20.47;75.23
52651;BME280;38537;47.226;39.702;2023-06-14T08:09:33;99794.31;;;20.14;75.59
52651;BME280;38537;47.226;39.702;2023-06-14T08:12:13;99766.25;;;20.02;75.49
52651;BME280;38537;47.226;39.702;2023-06-14T08:14:44;99811.28;;;20.40;75.18
52651;BME280;38537;47.226;39.702;2023-06-14T08:17:32;99883.56;;;20.91;74.40
52651;BME280;38537;47.226;39.702;2023-06-14T08:20:00;99759.63;;;20.24;73.88
52651;BME280;38537;47.226;39.702;2023-06-14T08:22:30;99761.72;;;20.31;73.53
52651;BME280;38537;47.226;39.702;2023-06-14T08:25:03;99773.00;;;20.61;73.72
52651;BME280;38537;47.226;39.702;2023-06-14T08:27:45;99788.63;;;20.84;73.58
52651;BME280;38537;47.226;39.702;2023-06-14T08:30:18;99861.28;;;21.33;72.81
52651;BME280;38537;47.226;39.702;2023-06-14T08:32:45;99842.13;;;21.27;72.22
52651;BME280;38537;47.226;39.702;2023-06-14T08:35:21;99835.97;;;21.17;71.51
52651;BME280;38537;47.226;39.702;2023-06-14T08:37:54;99774.38;;;20.77;71.71
52651;BME280;38537;47.226;39.702;2023-06-14T08:40:27;99753.72;;;20.77;71.89
52651;BME280;38537;47.226;39.702;2023-06-14T08:42:59;99839.84;;;21.46;71.13
52651;BME280;38537;47.226;39.702;2023-06-14T08:45:27;99780.84;;;21.22;71.07
52651;BME280;38537;47.226;39.702;2023-06-14T08:47:57;99773.50;;;21.17;69.87
52651;BME280;38537;47.226;39.702;2023-06-14T08:50:28;99767.78;;;21.14;69.59
52651;BME280;38537;47.226;39.702;2023-06-14T08:53:02;99766.19;;;21.16;68.88
52651;BME280;38537;47.226;39.702;2023-06-14T08:55:32;99824.44;;;21.47;68.87
52651;BME280;38537;47.226;39.702;2023-06-14T08:58:07;99810.25;;;21.51;68.33
52651;BME280;38537;47.226;39.702;2023-06-14T09:00:39;99785.91;;;21.50;68.40
52651;BME280;38537;47.226;39.702;2023-06-14T09:03:12;99881.31;;;22.13;66.63
52651;BME280;38537;47.226;39.702;2023-06-14T09:05:43;99746.81;;;21.29;67.16
52651;BME280;38537;47.226;39.702;2023-06-14T09:08:13;99820.19;;;21.78;67.61
52651;BME280;38537;47.226;39.702;2023-06-14T09:10:43;99794.13;;;21.62;67.35
52651;BME280;38537;47.226;39.702;2023-06-14T09:13:15;99880.59;;;22.30;66.81
52651;BME280;38537;47.226;39.702;2023-06-14T09:15:43;99750.59;;;21.51;67.45
52651;BME280;38537;47.226;39.702;2023-06-14T09:18:10;99824.75;;;21.97;67.16
52651;BME280;38537;47.226;39.702;2023-06-14T09:20:38;99846.81;;;22.18;67.02
52651;BME280;38537;47.226;39.702;2023-06-14T09:23:05;99872.16;;;22.51;66.83
52651;BME280;38537;47.226;39.702;2023-06-14T09:25:45;99826.94;;;22.25;65.66
52651;BME280;38537;47.226;39.702;2023-06-14T09:28:14;99794.38;;;22.12;66.37
52651;BME280;38537;47.226;39.702;2023-06-14T09:30:42;99783.41;;;22.14;66.19
52651;BME280;38537;47.226;39.702;2023-06-14T09:33:09;99788.31;;;22.17;65.23
52651;BME280;38537;47.226;39.702;2023-06-14T09:35:38;99743.09;;;21.94;64.89
52651;BME280;38537;47.226;39.702;2023-06-14T09:38:05;99790.38;;;22.34;65.04
52651;BME280;38537;47.226;39.702;2023-06-14T09:40:37;99820.56;;;22.64;65.06
52651;BME280;38537;47.226;39.702;2023-06-14T09:43:07;99796.13;;;22.55;64.99
52651;BME280;38537;47.226;39.702;2023-06-14T09:45:42;99729.41;;;22.25;64.94
52651;BME280;38537;47.226;39.702;2023-06-14T09:48:13;99774.59;;;22.58;64.78
52651;BME280;38537;47.226;39.702;2023-06-14T09:50:50;99745.31;;;22.43;64.63
52651;BME280;38537;47.226;39.702;2023-06-14T09:53:21;99810.06;;;22.93;64.30
52651;BME280;38537;47.226;39.702;2023-06-14T09:55:54;99797.03;;;22.88;63.66
52651;BME280;38537;47.226;39.702;2023-06-14T09:58:26;99749.38;;;22.56;63.70
52651;BME280;38537;47.226;39.702;2023-06-14T10:00:55;99833.25;;;23.12;64.09
52651;BME280;38537;47.226;39.702;2023-06-14T10:03:28;99796.63;;;22.86;64.07
52651;BME280;38537;47.226;39.702;2023-06-14T10:06:17;99738.00;;;22.56;64.19
52651;BME280;38537;47.226;39.702;2023-06-14T10:08:45;99743.69;;;22.60;64.16
52651;BME280;38537;47.226;39.702;2023-06-14T10:11:13;99810.84;;;22.97;64.02
52651;BME280;38537;47.226;39.702;2023-06-14T10:13:40;99851.97;;;23.17;63.75
52651;BME280;38537;47.226;39.702;2023-06-14T10:16:32;99851.59;;;23.15;63.11
52651;BME280;38537;47.226;39.702;2023-06-14T10:19:17;99826.31;;;22.99;63.55
52651;BME280;38537;47.226;39.702;2023-06-14T10:21:58;99808.81;;;22.97;63.56
52651;BME280;38537;47.226;39.702;2023-06-14T10:24:41;99832.88;;;23.14;63.89
52651;BME280;38537;47.226;39.702;2023-06-14T10:27:14;99830.81;;;23.11;64.24
52651;BME280;38537;47.226;39.702;2023-06-14T10:32:21;99827.97;;;23.11;64.77
52651;BME280;38537;47.226;39.702;2023-06-14T10:34:59;99828.38;;;23.23;64.32
52651;BME280;38537;47.226;39.702;2023-06-14T10:37:30;99858.50;;;23.35;64.49
52651;BME280;38537;47.226;39.702;2023-06-14T10:39:58;99844.25;;;23.28;64.31
52651;BME280;38537;47.226;39.702;2023-06-14T10:42:32;99840.59;;;23.31;64.10
52651;BME280;38537;47.226;39.702;2023-06-14T10:45:00;99843.44;;;23.38;63.82
52651;BME280;38537;47.226;39.702;2023-06-14T10:47:36;99834.91;;;23.38;63.89
52651;BME280;38537;47.226;39.702;2023-06-14T10:50:10;99819.44;;;23.32;63.88
52651;BME280;38537;47.226;39.702;2023-06-14T10:52:43;99809.25;;;23.35;64.37
52651;BME280;38537;47.226;39.702;2023-06-14T10:55:16;99832.44;;;23.44;64.14
52651;BME280;38537;47.226;39.702;2023-06-14T10:57:52;99821.44;;;23.39;63.73
52651;BME280;38537;47.226;39.702;2023-06-14T11:00:23;99840.97;;;23.47;64.23
52651;BME280;38537;47.226;39.702;2023-06-14T11:05:54;99829.19;;;23.67;63.77
52651;BME280;38537;47.226;39.702;2023-06-14T11:11:10;99793.78;;;23.57;63.73
52651;BME280;38537;47.226;39.702;2023-06-14T11:13:44;99829.97;;;23.81;63.49
52651;BME280;38537;47.226;39.702;2023-06-14T11:16:13;99830.34;;;23.87;63.48
52651;BME280;38537;47.226;39.702;2023-06-14T11:18:45;99798.22;;;23.72;63.00
52651;BME280;38537;47.226;39.702;2023-06-14T11:21:17;99827.88;;;23.96;62.90
52651;BME280;38537;47.226;39.702;2023-06-14T11:23:52;99829.13;;;23.95;62.89
52651;BME280;38537;47.226;39.702;2023-06-14T11:26:31;99818.94;;;23.90;62.18
52651;BME280;38537;47.226;39.702;2023-06-14T11:29:00;99786.41;;;23.77;62.79
52651;BME280;38537;47.226;39.702;2023-06-14T11:31:28;99826.22;;;24.06;62.60
52651;BME280;38537;47.226;39.702;2023-06-14T11:33:58;99831.50;;;24.14;61.85
52651;BME280;38537;47.226;39.702;2023-06-14T11:36:27;99832.31;;;24.15;62.24
52651;BME280;38537;47.226;39.702;2023-06-14T11:39:05;99830.25;;;24.19;61.52
52651;BME280;38537;47.226;39.702;2023-06-14T12:32:08;99807.38;;;24.37;62.29
52651;BME280;38537;47.226;39.702;2023-06-14T12:34:37;99813.09;;;24.37;62.54
52651;BME280;38537;47.226;39.702;2023-06-14T12:37:04;99802.50;;;24.30;62.47
52651;BME280;38537;47.226;39.702;2023-06-14T12:39:34;99796.41;;;24.28;62.61
52651;BME280;38537;47.226;39.702;2023-06-14T12:42:02;99785.81;;;24.21;62.76
52651;BME280;38537;47.226;39.702;2023-06-14T12:44:31;99809.81;;;24.38;63.01
52651;BME280;38537;47.226;39.702;2023-06-14T12:47:00;99795.56;;;24.31;63.13
52651;BME280;38537;47.226;39.702;2023-06-14T12:49:28;99795.13;;;24.36;62.58
52651;BME280;38537;47.226;39.702;2023-06-14T12:51:56;99806.06;;;24.48;62.86
52651;BME280;38537;47.226;39.702;2023-06-14T12:54:23;99808.94;;;24.48;63.19
52651;BME280;38537;47.226;39.702;2023-06-14T12:57:08;99808.13;;;24.48;62.86
52651;BME280;38537;47.226;39.702;2023-06-14T12:59:36;99797.16;;;24.39;62.89
52651;BME280;38537;47.226;39.702;2023-06-14T13:02:13;99793.50;;;24.35;63.30
52651;BME280;38537;47.226;39.702;2023-06-14T13:08:04;99805.34;;;24.37;63.58
52651;BME280;38537;47.226;39.702;2023-06-14T13:10:31;99769.13;;;24.16;64.27
52651;BME280;38537;47.226;39.702;2023-06-14T13:12:59;99774.81;;;24.20;63.60
52651;BME280;38537;47.226;39.702;2023-06-14T13:15:27;99784.56;;;24.30;63.78
52651;BME280;38537;47.226;39.702;2023-06-14T13:17:55;99784.16;;;24.31;63.90
52651;BME280;38537;47.226;39.702;2023-06-14T13:20:22;99784.94;;;24.42;63.67
52651;BME280;38537;47.226;39.702;2023-06-14T13:22:51;99770.69;;;24.35;63.76
52651;BME280;38537;47.226;39.702;2023-06-14T13:25:22;99783.28;;;24.45;63.86
52651;BME280;38537;47.226;39.702;2023-06-14T13:27:49;99762.94;;;24.36;64.16
52651;BME280;38537;47.226;39.702;2023-06-14T13:30:17;99796.25;;;24.53;63.85
52651;BME280;38537;47.226;39.702;2023-06-14T13:32:47;99800.81;;;24.43;63.39
52651;BME280;38537;47.226;39.702;2023-06-14T13:35:19;99793.13;;;24.33;63.48
52651;BME280;38537;47.226;39.702;2023-06-14T13:37:48;99774.00;;;24.16;63.39
52651;BME280;38537;47.226;39.702;2023-06-14T13:40:15;99804.53;;;24.33;63.48
52651;BME280;38537;47.226;39.702;2023-06-14T13:42:46;99812.66;;;24.38;63.15
52651;BME280;38537;47.226;39.702;2023-06-14T13:45:14;99777.25;;;24.25;63.33
52651;BME280;38537;47.226;39.702;2023-06-14T13:47:42;99775.22;;;24.18;63.31
52651;BME280;38537;47.226;39.702;2023-06-14T13:50:09;99778.88;;;24.22;63.51
52651;BME280;38537;47.226;39.702;2023-06-14T13:52:37;99769.94;;;24.24;63.20
52651;BME280;38537;47.226;39.702;2023-06-14T13:55:04;99798.78;;;24.40;63.46
52651;BME280;38537;47.226;39.702;2023-06-14T13:57:32;99785.31;;;24.44;63.50
52651;BME280;38537;47.226;39.702;2023-06-14T14:00:00;99790.22;;;24.44;62.44
52651;BME280;38537;47.226;39.702;2023-06-14T14:02:41;99784.53;;;24.40;62.27
52651;BME280;38537;47.226;39.702;2023-06-14T14:05:10;99765.00;;;24.32;62.31
52651;BME280;38537;47.226;39.702;2023-06-14T14:07:41;99745.47;;;24.23;62.00
52651;BME280;38537;47.226;39.702;2023-06-14T14:10:09;99762.13;;;24.35;61.89
52651;BME280;38537;47.226;39.702;2023-06-14T14:12:39;99790.63;;;24.42;61.45
52651;BME280;38537;47.226;39.702;2023-06-14T14:15:07;99779.66;;;24.37;61.60
52651;BME280;38537;47.226;39.702;2023-06-14T14:17:40;99780.44;;;24.41;61.62
52651;BME280;38537;47.226;39.702;2023-06-14T14:20:10;99785.31;;;24.44;60.88
52651;BME280;38537;47.226;39.702;2023-06-14T14:22:40;99750.34;;;24.26;60.96
52651;BME280;38537;47.226;39.702;2023-06-14T14:25:08;99780.88;;;24.33;60.97
52651;BME280;38537;47.226;39.702;2023-06-14T14:27:36;99769.13;;;24.20;61.03
52651;BME280;38537;47.226;39.702;2023-06-14T14:30:04;99777.66;;;24.23;61.26
52651;BME280;38537;47.226;39.702;2023-06-14T14:32:34;99769.94;;;24.24;61.26
52651;BME280;38537;47.226;39.702;2023-06-14T14:35:01;99804.91;;;24.42;60.78
52651;BME280;38537;47.226;39.702;2023-06-14T14:37:30;99792.28;;;24.36;60.77
52651;BME280;38537;47.226;39.702;2023-06-14T14:40:00;99793.50;;;24.39;60.70
52651;BME280;38537;47.226;39.702;2023-06-14T14:42:30;99797.56;;;24.41;60.65
52651;BME280;38537;47.226;39.702;2023-06-14T14:44:58;99811.44;;;24.43;59.99
52651;BME280;38537;47.226;39.702;2023-06-14T14:51:36;99790.28;;;24.26;59.49
52651;BME280;38537;47.226;39.702;2023-06-14T14:54:08;99805.69;;;24.46;59.97
52651;BME280;38537;47.226;39.702;2023-06-14T14:56:39;99813.00;;;24.47;59.57
52651;BME280;38537;47.226;39.702;2023-06-14T14:59:07;99797.56;;;24.41;59.61
52651;BME280;38537;47.226;39.702;2023-06-14T15:01:34;99781.31;;;24.27;59.79